Дата Время Давление Темп. Влажн. Скор.ветра Напр.ветра Макс.ветер Осадки/час Осадки
15.06.21 12:00 742 28.6 48.1 0.8 59 2.9 0 0
15.06.21 11:00 741.7 30.1 45.3 0.6 0 2 0 0
15.06.21 10:00 742.9 26.9 54.5 0.6 0 1.5 0 0
15.06.21 09:00 743.1 25 62 0.6 0 1.6 0 0
15.06.21 08:00 744.8 20.2 78.5 0.9 55 1.6 0 0
15.06.21 07:00 744.7 19 84.2 0.6 0 1.8 0 0
15.06.21 06:00 745 17 91 0.6 39 2 0 0
15.06.21 05:00 745.3 16.2 92 0.6 0 1 0 0
15.06.21 04:00 745.4 16.3 91.5 0.7 33 2 0 0
15.06.21 03:00 745.6 16.8 90.3 0.8 36 1.6 0 0
15.06.21 02:00 745.7 17.3 88.7 1.1 355 1.9 0 0
15.06.21 01:00 745.8 18.2 84.9 0.7 11 1.4 0 0
15.06.21 00:00 745.6 19.2 81 0.9 16 2.1 0 0
14.06.21 23:00 745.6 20 75.6 0.8 359 2.3 0 0
14.06.21 22:00 745.5 21.5 71.6 0.8 5 2.7 0 0
14.06.21 21:00 745.2 23.6 61.2 0.6 268 2.3 0 0
14.06.21 20:00 745.1 25 57.6 0.8 229 2.3 0 0
14.06.21 19:00 744.5 27.9 49.6 0.6 0 2.5 0 0
14.06.21 18:00 744.9 26.9 47.9 0.6 7 4.6 0 0
14.06.21 17:00 744.2 28.5 46.6 1.5 233 4.5 0 0
14.06.21 16:00 743.5 29.4 44.5 1.4 216 6.2 0 0
14.06.21 15:00 745.2 27.2 47.8 0.9 226 3.6 0 0
14.06.21 14:00 743.4 28.8 43.8 0.7 243 4.6 0 0
14.06.21 13:00 744.1 26.5 50.1 1.6 180 4.2 0 0